Time;durP1;ratioP1;P1;durP2;ratioP2;P2;SDS_P1;SDS_P2;PMS_P1;PMS_P2;Temp;Humidity;BMP_temperature;BMP_pressure;BME280_temperature;BME280_humidity;BME280_pressure;Samples;Min_cycle;Max_cycle;Signal;HPM_P1;HPM_P2
2021/04/13 00:00:27;;;;;;;;;;;;;;;;;;5081076;28;19924;-66
2021/04/13 00:02:54;;;;;;;;;;;;;;;;;;5069891;28;20981;-67
2021/04/13 00:05:21;;;;;;;;;;;;;;;;;;5079774;28;20282;-67
2021/04/13 00:07:47;;;;;;;;;;;;;;;;;;5080796;28;19971;-65
2021/04/13 00:10:14;;;;;;;;;;;;;;;;;;5075961;28;19931;-65
2021/04/13 00:12:43;;;;;;;;;;;;;;;;;;5076207;28;19924;-66
2021/04/13 00:15:09;;;;;;;;;;;;;;;;;;5071241;28;20003;-66
2021/04/13 00:17:36;;;;;;;;;;;;;;;;;;5075218;28;19967;-65
2021/04/13 00:20:02;;;;;;;;;;;;;;;;;;5071468;28;19924;-65
2021/04/13 00:22:29;;;;;;;;;;;;;;;;;;5076149;28;19929;-67
2021/04/13 00:24:56;;;;;;;;;;;;;;;;;;5079335;28;19938;-68
2021/04/13 00:27:22;;;;;;;;;;;;;;;;;;5078480;28;20012;-65
2021/04/13 00:29:49;;;;;;;;;;;;;;;;;;5072338;28;20409;-65
2021/04/13 00:32:15;;;;;;;;;;;;;;;;;;5065294;28;20459;-67
2021/04/13 00:34:46;;;;;;;;;;;;;;;;;;5072618;28;20023;-66
2021/04/13 00:37:13;;;;;;;;;;;;;;;;;;5066790;28;19924;-67
2021/04/13 00:39:39;;;;;;;;;;;;;;;;;;5059952;28;20404;-65
2021/04/13 00:42:06;;;;;;;;;;;;;;;;;;5070798;28;19960;-65
2021/04/13 00:44:32;;;;;;;;;;;;;;;;;;5072683;28;19968;-66
2021/04/13 00:46:59;;;;;;;;;;;;;;;;;;5075337;28;19928;-65
2021/04/13 00:49:25;;;;;;;;;;;;;;;;;;5084216;28;19928;-68
2021/04/13 00:51:52;;;;;;;;;;;;;;;;;;5077228;28;20408;-66
2021/04/13 00:54:18;;;;;;;;;;;;;;;;;;5084066;28;20392;-66
2021/04/13 00:56:45;;;;;;;;;;;;;;;;;;5077382;28;20348;-67
2021/04/13 00:59:11;;;;;;;;;;;;;;;;;;5074600;28;19952;-67
2021/04/13 01:01:38;;;;;;;;;;;;;;;;;;5071670;28;19936;-65
2021/04/13 01:04:04;;;;;;;;;;;;;;;;;;5080774;28;20005;-66
2021/04/13 01:06:31;;;;;;;;;;;;;;;;;;5084208;28;19924;-64
2021/04/13 01:08:57;;;;;;;;;;;;;;;;;;5068524;28;20009;-66
2021/04/13 01:11:24;;;;;;;;;;;;;;;;;;5079366;28;19977;-65
2021/04/13 01:13:51;;;;;;;;;;;;;;;;;;5084648;28;19932;-65
2021/04/13 01:16:17;;;;;;;;;;;;;;;;;;5075362;28;19932;-66
2021/04/13 01:18:44;;;;;;;;;;;;;;;;;;5075101;28;19935;-65
2021/04/13 01:21:10;;;;;;;;;;;;;;;;;;5074578;28;19971;-65
2021/04/13 01:23:42;;;;;;;;;;;;;;;;;;5084452;28;19928;-66
2021/04/13 01:26:08;;;;;;;;;;;;;;;;;;5081263;28;19924;-70
2021/04/13 01:28:35;;;;;;;;;;;;;;;;;;5083652;28;20005;-65
2021/04/13 01:31:01;;;;;;;;;;;;;;;;;;5080956;28;20438;-66
2021/04/13 01:33:28;;;;;;;;;;;;;;;;;;5075528;28;19963;-65
2021/04/13 01:35:57;;;;;;;;;;;;;;;;;;5074037;28;19924;-65
2021/04/13 01:38:26;;;;;;;;;;;;;;;;;;5074331;28;20474;-67
2021/04/13 01:41:03;;;;;;;;;;;;;;;;;;5083031;28;19928;-65
2021/04/13 01:43:30;;;;;;;;;;;;;;;;;;5082145;28;19971;-66
2021/04/13 01:45:56;;;;;;;;;;;;;;;;;;5067222;28;20012;-65
2021/04/13 01:48:23;;;;;;;;;;;;;;;;;;5079653;28;19968;-66
2021/04/13 01:50:49;;;;;;;;;;;;;;;;;;5075690;28;19931;-66
2021/04/13 01:53:16;;;;;;;;;;;;;;;;;;5077794;28;19956;-66
2021/04/13 01:55:42;;;;;;;;;;;;;;;;;;5076316;28;20377;-65
2021/04/13 01:58:09;;;;;;;;;;;;;;;;;;5065905;28;20423;-65
2021/04/13 02:00:35;;;;;;;;;;;;;;;;;;5069879;28;20015;-69
2021/04/13 02:03:02;;;;;;;;;;;;;;;;;;5071161;28;20009;-65
2021/04/13 02:05:31;;;;;;;;;;;;;;;;;;5080014;28;19925;-65
2021/04/13 02:07:59;;;;;;;;;;;;;;;;;;5074582;28;20352;-66
2021/04/13 02:10:28;;;;;;;;;;;;;;;;;;5087450;28;19928;-66
2021/04/13 02:12:55;;;;;;;;;;;;;;;;;;5080591;28;19928;-66
2021/04/13 02:15:21;;;;;;;;;;;;;;;;;;5081899;28;19925;-66
2021/04/13 02:17:48;;;;;;;;;;;;;;;;;;5079645;28;19924;-65
2021/04/13 02:20:14;;;;;;;;;;;;;;;;;;5081437;28;19980;-65
2021/04/13 02:22:41;;;;;;;;;;;;;;;;;;5085944;28;19931;-66
2021/04/13 02:25:07;;;;;;;;;;;;;;;;;;5072163;28;19930;-65
2021/04/13 02:27:34;;;;;;;;;;;;;;;;;;5067681;28;20363;-67
2021/04/13 02:30:00;;;;;;;;;;;;;;;;;;5077395;28;20385;-66
2021/04/13 02:32:27;;;;;;;;;;;;;;;;;;5073435;28;19963;-65
2021/04/13 02:34:53;;;;;;;;;;;;;;;;;;5075825;28;19979;-65
2021/04/13 02:37:20;;;;;;;;;;;;;;;;;;5069404;28;19931;-66
2021/04/13 02:39:46;;;;;;;;;;;;;;;;;;5066858;28;19925;-66
2021/04/13 02:42:15;;;;;;;;;;;;;;;;;;5068307;28;19930;-69
2021/04/13 02:44:41;;;;;;;;;;;;;;;;;;5078278;28;19930;-66
2021/04/13 02:47:08;;;;;;;;;;;;;;;;;;5090139;28;19928;-66
2021/04/13 02:49:34;;;;;;;;;;;;;;;;;;5082658;28;19924;-66
2021/04/13 02:52:01;;;;;;;;;;;;;;;;;;5072833;28;19967;-65
2021/04/13 02:54:27;;;;;;;;;;;;;;;;;;5071726;28;19967;-67
2021/04/13 02:56:54;;;;;;;;;;;;;;;;;;5074284;28;19928;-65
2021/04/13 02:59:20;;;;;;;;;;;;;;;;;;5060987;28;20376;-66
2021/04/13 03:01:47;;;;;;;;;;;;;;;;;;5064771;28;19924;-66
2021/04/13 03:04:13;;;;;;;;;;;;;;;;;;5066855;28;19933;-65
2021/04/13 03:06:40;;;;;;;;;;;;;;;;;;5081030;28;19925;-64
2021/04/13 03:09:07;;;;;;;;;;;;;;;;;;5070952;28;19930;-66
2021/04/13 03:11:34;;;;;;;;;;;;;;;;;;5075185;28;20414;-66
2021/04/13 03:14:00;;;;;;;;;;;;;;;;;;5068037;28;20047;-67
2021/04/13 03:16:27;;;;;;;;;;;;;;;;;;5076506;28;20092;-66
2021/04/13 03:18:53;;;;;;;;;;;;;;;;;;5075681;28;20595;-66
2021/04/13 03:21:20;;;;;;;;;;;;;;;;;;5070956;28;19924;-66
2021/04/13 03:23:46;;;;;;;;;;;;;;;;;;5067173;28;19935;-65
2021/04/13 03:26:13;;;;;;;;;;;;;;;;;;5077363;28;19928;-66
2021/04/13 03:28:39;;;;;;;;;;;;;;;;;;5072945;28;20334;-66
2021/04/13 03:31:06;;;;;;;;;;;;;;;;;;5075884;28;20333;-66
2021/04/13 03:33:32;;;;;;;;;;;;;;;;;;5080383;28;20333;-66
2021/04/13 03:35:59;;;;;;;;;;;;;;;;;;5071160;28;20024;-66
2021/04/13 03:38:27;;;;;;;;;;;;;;;;;;5086155;28;19924;-65
2021/04/13 03:40:54;;;;;;;;;;;;;;;;;;5078232;28;20566;-66
2021/04/13 03:43:21;;;;;;;;;;;;;;;;;;5083117;28;19933;-66
2021/04/13 03:45:47;;;;;;;;;;;;;;;;;;5070360;28;19936;-67
2021/04/13 03:48:14;;;;;;;;;;;;;;;;;;5074362;28;19972;-66
2021/04/13 03:50:40;;;;;;;;;;;;;;;;;;5079292;28;19924;-65
2021/04/13 03:53:07;;;;;;;;;;;;;;;;;;5078139;28;19936;-66
2021/04/13 03:55:33;;;;;;;;;;;;;;;;;;5077690;28;20023;-67
2021/04/13 03:58:00;;;;;;;;;;;;;;;;;;5069218;28;20293;-66
2021/04/13 04:00:26;;;;;;;;;;;;;;;;;;5067719;28;20029;-68
2021/04/13 04:02:53;;;;;;;;;;;;;;;;;;5071038;28;19928;-67
2021/04/13 04:05:21;;;;;;;;;;;;;;;;;;5068754;28;19990;-66
2021/04/13 04:07:51;;;;;;;;;;;;;;;;;;5078945;28;20048;-66
2021/04/13 04:10:18;;;;;;;;;;;;;;;;;;5077401;28;19932;-65
2021/04/13 04:12:44;;;;;;;;;;;;;;;;;;5084459;28;20319;-64
2021/04/13 04:15:11;;;;;;;;;;;;;;;;;;5104638;22;19927;-66
2021/04/13 04:17:37;;;;;;;;;;;;;;;;;;5103268;28;20065;-66
2021/04/13 04:20:04;;;;;;;;;;;;;;;;;;5106505;28;19931;-67
2021/04/13 04:22:30;;;;;;;;;;;;;;;;;;5105442;28;19939;-66
2021/04/13 04:24:57;;;;;;;;;;;;;;;;;;5104982;28;19930;-66
2021/04/13 04:27:23;;;;;;;;;;;;;;;;;;5092306;28;19928;-66
2021/04/13 04:29:50;;;;;;;;;;;;;;;;;;5092848;28;19925;-66
2021/04/13 04:32:16;;;;;;;;;;;;;;;;;;5093737;28;19977;-66
2021/04/13 04:34:42;;;;;;;;;;;;;;;;;;5085378;28;20019;-66
2021/04/13 04:37:09;;;;;;;;;;;;;;;;;;5093634;28;19924;-66
2021/04/13 04:39:36;;;;;;;;;;;;;;;;;;5095081;28;19924;-66
2021/04/13 04:42:07;;;;;;;;;;;;;;;;;;5092905;28;19931;-66
2021/04/13 04:44:33;;;;;;;;;;;;;;;;;;5099379;28;19931;-66
2021/04/13 04:47:00;;;;;;;;;;;;;;;;;;5091549;28;19966;-66
2021/04/13 04:49:26;;;;;;;;;;;;;;;;;;5083582;28;20031;-66
2021/04/13 04:51:53;;;;;;;;;;;;;;;;;;5095024;28;20034;-66
2021/04/13 04:54:19;;;;;;;;;;;;;;;;;;5092075;28;20339;-66
2021/04/13 04:56:46;;;;;;;;;;;;;;;;;;5104955;28;19943;-66
2021/04/13 04:59:13;;;;;;;;;;;;;;;;;;5089098;28;19928;-66
2021/04/13 05:01:39;;;;;;;;;;;;;;;;;;5099050;28;19932;-66
2021/04/13 05:04:06;;;;;;;;;;;;;;;;;;5087422;28;19928;-66
2021/04/13 05:06:32;;;;;;;;;;;;;;;;;;5092605;28;19924;-66
2021/04/13 05:08:59;;;;;;;;;;;;;;;;;;5096601;28;19924;-66
2021/04/13 05:11:25;;;;;;;;;;;;;;;;;;5086146;28;19928;-66
2021/04/13 05:13:52;;;;;;;;;;;;;;;;;;5091749;28;19935;-66
2021/04/13 05:16:18;;;;;;;;;;;;;;;;;;5099325;28;19930;-66
2021/04/13 05:18:44;;;;;;;;;;;;;;;;;;5096564;28;19924;-66
2021/04/13 05:21:11;;;;;;;;;;;;;;;;;;5093167;28;19924;-67
2021/04/13 05:23:37;;;;;;;;;;;;;;;;;;5089934;28;19924;-67
2021/04/13 05:26:04;;;;;;;;;;;;;;;;;;5096833;28;20523;-67
2021/04/13 05:28:30;;;;;;;;;;;;;;;;;;5087775;28;19924;-67
2021/04/13 05:30:57;;;;;;;;;;;;;;;;;;5089941;28;19928;-67
2021/04/13 05:33:23;;;;;;;;;;;;;;;;;;5090875;28;19934;-67
2021/04/13 05:35:50;;;;;;;;;;;;;;;;;;5088289;28;19930;-67
2021/04/13 05:38:16;;;;;;;;;;;;;;;;;;5099323;28;19931;-67
2021/04/13 05:40:43;;;;;;;;;;;;;;;;;;5099465;28;19927;-67
2021/04/13 05:43:09;;;;;;;;;;;;;;;;;;5097800;28;19925;-67
2021/04/13 05:45:36;;;;;;;;;;;;;;;;;;5096763;28;20028;-66
2021/04/13 05:48:02;;;;;;;;;;;;;;;;;;5093937;28;20015;-66
2021/04/13 05:50:29;;;;;;;;;;;;;;;;;;5098398;28;19924;-67
2021/04/13 05:52:55;;;;;;;;;;;;;;;;;;5101240;28;20283;-66
2021/04/13 05:55:22;;;;;;;;;;;;;;;;;;5092983;28;19939;-67
2021/04/13 05:57:48;;;;;;;;;;;;;;;;;;5092941;28;20295;-66
2021/04/13 06:00:15;;;;;;;;;;;;;;;;;;5092777;28;19924;-66
2021/04/13 06:02:41;;;;;;;;;;;;;;;;;;5095815;28;19931;-66
2021/04/13 06:05:07;;;;;;;;;;;;;;;;;;5092044;28;19924;-67
2021/04/13 06:07:34;;;;;;;;;;;;;;;;;;5102889;28;19930;-66
2021/04/13 06:10:00;;;;;;;;;;;;;;;;;;5093444;28;19963;-67
2021/04/13 06:12:27;;;;;;;;;;;;;;;;;;5093308;28;19924;-67
2021/04/13 06:14:54;;;;;;;;;;;;;;;;;;5092760;28;19928;-67
2021/04/13 06:17:20;;;;;;;;;;;;;;;;;;5096668;28;20014;-67
2021/04/13 06:19:47;;;;;;;;;;;;;;;;;;5091766;28;20391;-67
2021/04/13 06:22:16;;;;;;;;;;;;;;;;;;5091570;28;19981;-67
2021/04/13 06:24:42;;;;;;;;;;;;;;;;;;5091997;28;19969;-67
2021/04/13 06:27:08;;;;;;;;;;;;;;;;;;5093843;28;19924;-67
2021/04/13 06:29:38;;;;;;;;;;;;;;;;;;5094486;28;19928;-67
2021/04/13 06:32:04;;;;;;;;;;;;;;;;;;5098075;28;19936;-66
2021/04/13 06:34:31;;;;;;;;;;;;;;;;;;5097345;28;20015;-66
2021/04/13 06:36:57;;;;;;;;;;;;;;;;;;5101823;28;20447;-67
2021/04/13 06:39:24;;;;;;;;;;;;;;;;;;5097569;28;19925;-67
2021/04/13 06:41:50;;;;;;;;;;;;;;;;;;5095464;28;20026;-66
2021/04/13 06:44:17;;;;;;;;;;;;;;;;;;5094351;28;20402;-67
2021/04/13 06:46:43;;;;;;;;;;;;;;;;;;5098394;28;19943;-67
2021/04/13 06:49:10;;;;;;;;;;;;;;;;;;5101104;28;19923;-66
2021/04/13 06:51:36;;;;;;;;;;;;;;;;;;5092540;28;20307;-66
2021/04/13 06:54:03;;;;;;;;;;;;;;;;;;5092995;28;20018;-67
2021/04/13 06:56:29;;;;;;;;;;;;;;;;;;5087160;28;19930;-67
2021/04/13 06:58:56;;;;;;;;;;;;;;;;;;5086661;28;19931;-67
2021/04/13 07:01:22;;;;;;;;;;;;;;;;;;5086603;28;20048;-70
2021/04/13 07:03:49;;;;;;;;;;;;;;;;;;5078174;28;20005;-66
2021/04/13 07:06:15;;;;;;;;;;;;;;;;;;5086379;28;19928;-67
2021/04/13 07:08:42;;;;;;;;;;;;;;;;;;5094243;28;19923;-67
2021/04/13 07:11:08;;;;;;;;;;;;;;;;;;5095142;28;19924;-67
2021/04/13 07:13:35;;;;;;;;;;;;;;;;;;5091032;28;20295;-66
2021/04/13 07:16:01;;;;;;;;;;;;;;;;;;5083528;28;20018;-67
2021/04/13 07:18:28;;;;;;;;;;;;;;;;;;5090908;28;19954;-67
2021/04/13 07:20:54;;;;;;;;;;;;;;;;;;5090569;28;20019;-67
2021/04/13 07:23:21;;;;;;;;;;;;;;;;;;5088794;28;19924;-67
2021/04/13 07:25:47;;;;;;;;;;;;;;;;;;5087564;28;20592;-67
2021/04/13 07:28:14;;;;;;;;;;;;;;;;;;5083915;28;19929;-67
2021/04/13 07:30:40;;;;;;;;;;;;;;;;;;5090457;28;19930;-67
2021/04/13 07:33:07;;;;;;;;;;;;;;;;;;5095461;28;20014;-67
2021/04/13 07:35:33;;;;;;;;;;;;;;;;;;5088397;28;19967;-67
2021/04/13 07:38:00;;;;;;;;;;;;;;;;;;5096993;28;19966;-67
2021/04/13 07:40:26;;;;;;;;;;;;;;;;;;5086403;28;20455;-67
2021/04/13 07:42:53;;;;;;;;;;;;;;;;;;5091016;28;19957;-67
2021/04/13 07:45:19;;;;;;;;;;;;;;;;;;5089367;28;20304;-67
2021/04/13 07:47:46;;;;;;;;;;;;;;;;;;5088150;28;20022;-67
2021/04/13 07:50:12;;;;;;;;;;;;;;;;;;5082179;28;20035;-66
2021/04/13 07:52:41;;;;;;;;;;;;;;;;;;5097862;28;20306;-67
2021/04/13 07:55:07;;;;;;;;;;;;;;;;;;5083516;28;19962;-67
2021/04/13 07:57:34;;;;;;;;;;;;;;;;;;5088286;28;19924;-66
2021/04/13 08:00:02;;;;;;;;;;;;;;;;;;5090478;28;19924;-66
2021/04/13 08:02:29;;;;;;;;;;;;;;;;;;5087976;28;19924;-67
2021/04/13 08:04:55;;;;;;;;;;;;;;;;;;5083752;28;19971;-66
2021/04/13 08:07:22;;;;;;;;;;;;;;;;;;5086675;28;20456;-66
2021/04/13 08:09:48;;;;;;;;;;;;;;;;;;5088020;28;20280;-66
2021/04/13 08:12:15;;;;;;;;;;;;;;;;;;5087232;28;19977;-66
2021/04/13 08:14:41;;;;;;;;;;;;;;;;;;5085076;28;19963;-66
2021/04/13 08:17:08;;;;;;;;;;;;;;;;;;5085411;28;19971;-67
2021/04/13 08:19:34;;;;;;;;;;;;;;;;;;5084351;28;20350;-67
2021/04/13 08:22:01;;;;;;;;;;;;;;;;;;5087804;28;19964;-67
2021/04/13 08:24:27;;;;;;;;;;;;;;;;;;5085077;28;20053;-67
2021/04/13 08:26:54;;;;;;;;;;;;;;;;;;5087893;28;20019;-66
2021/04/13 08:29:20;;;;;;;;;;;;;;;;;;5089147;28;19924;-66
2021/04/13 08:34:31;;;;;;;;;;;;;;;;;;5079263;28;19942;-66
2021/04/13 08:36:58;;;;;;;;;;;;;;;;;;5092435;28;20207;-66
2021/04/13 08:39:24;;;;;;;;;;;;;;;;;;5081622;28;20323;-66
2021/04/13 08:41:51;;;;;;;;;;;;;;;;;;5085390;28;19924;-66
2021/04/13 08:44:17;;;;;;;;;;;;;;;;;;5087134;28;19932;-67
2021/04/13 08:46:44;;;;;;;;;;;;;;;;;;5084826;28;19932;-67
2021/04/13 08:49:10;;;;;;;;;;;;;;;;;;5091313;28;20002;-67
2021/04/13 08:51:37;;;;;;;;;;;;;;;;;;5084538;28;20340;-67
2021/04/13 08:54:04;;;;;;;;;;;;;;;;;;5080030;28;20118;-67
2021/04/13 08:56:30;;;;;;;;;;;;;;;;;;5085671;28;19925;-67
2021/04/13 08:58:57;;;;;;;;;;;;;;;;;;5089016;28;19924;-67
2021/04/13 09:01:23;;;;;;;;;;;;;;;;;;5080948;28;19924;-66
2021/04/13 09:03:52;;;;;;;;;;;;;;;;;;5085581;28;20003;-67
2021/04/13 09:06:19;;;;;;;;;;;;;;;;;;5080790;28;19924;-67
2021/04/13 09:08:46;;;;;;;;;;;;;;;;;;5085661;28;19943;-67
2021/04/13 09:11:13;;;;;;;;;;;;;;;;;;5090147;28;19928;-67
2021/04/13 09:13:39;;;;;;;;;;;;;;;;;;5098532;28;20276;-67
2021/04/13 09:16:06;;;;;;;;;;;;;;;;;;5084145;28;20281;-66
2021/04/13 09:18:32;;;;;;;;;;;;;;;;;;5091081;28;19946;-65
2021/04/13 09:20:58;;;;;;;;;;;;;;;;;;5085806;28;20155;-66
2021/04/13 09:23:25;;;;;;;;;;;;;;;;;;5087082;28;20027;-63
2021/04/13 09:25:52;;;;;;;;;;;;;;;;;;5082909;28;20094;-64
2021/04/13 09:28:19;;;;;;;;;;;;;;;;;;5089641;28;19927;-64
2021/04/13 09:30:48;;;;;;;;;;;;;;;;;;5083052;28;19932;-63
2021/04/13 09:33:14;;;;;;;;;;;;;;;;;;5085990;28;19924;-64
2021/04/13 09:35:41;;;;;;;;;;;;;;;;;;5079459;28;19950;-65
2021/04/13 09:38:10;;;;;;;;;;;;;;;;;;5086393;28;20014;-65
2021/04/13 09:40:41;;;;;;;;;;;;;;;;;;5088402;28;20006;-65
2021/04/13 09:43:08;;;;;;;;;;;;;;;;;;5083297;28;19928;-66
2021/04/13 09:45:34;;;;;;;;;;;;;;;;;;5084170;28;19929;-65
2021/04/13 09:48:01;;;;;;;;;;;;;;;;;;5086988;28;20395;-66
2021/04/13 09:50:27;;;;;;;;;;;;;;;;;;5085580;28;20295;-66
2021/04/13 09:52:54;;;;;;;;;;;;;;;;;;5084062;28;19975;-67
2021/04/13 09:55:20;;;;;;;;;;;;;;;;;;5080579;28;21685;-66
2021/04/13 09:57:47;;;;;;;;;;;;;;;;;;5078618;28;19924;-65
2021/04/13 10:00:13;;;;;;;;;;;;;;;;;;5081814;28;20785;-67
2021/04/13 10:02:40;;;;;;;;;;;;;;;;;;5087365;28;19939;-67
2021/04/13 10:05:06;;;;;;;;;;;;;;;;;;5078874;28;19935;-66
2021/04/13 10:07:35;;;;;;;;;;;;;;;;;;5074922;28;20398;-66
2021/04/13 10:10:01;;;;;;;;;;;;;;;;;;5080068;28;19928;-66
2021/04/13 10:12:28;;;;;;;;;;;;;;;;;;5089145;28;20319;-66
2021/04/13 10:14:54;;;;;;;;;;;;;;;;;;5084298;28;19932;-66
2021/04/13 10:17:21;;;;;;;;;;;;;;;;;;5079460;28;20048;-65
2021/04/13 10:19:47;;;;;;;;;;;;;;;;;;5080265;28;19932;-66
2021/04/13 10:22:14;;;;;;;;;;;;;;;;;;5086494;28;19923;-66
2021/04/13 10:24:41;;;;;;;;;;;;;;;;;;5081661;28;19928;-66
2021/04/13 10:27:07;;;;;;;;;;;;;;;;;;5088851;28;20524;-66
2021/04/13 10:29:34;;;;;;;;;;;;;;;;;;5085164;28;20344;-66
2021/04/13 10:32:00;;;;;;;;;;;;;;;;;;5084843;28;19981;-66
2021/04/13 10:34:27;;;;;;;;;;;;;;;;;;5082915;28;19976;-65
2021/04/13 10:36:53;;;;;;;;;;;;;;;;;;5084059;28;19932;-66
2021/04/13 10:39:20;;;;;;;;;;;;;;;;;;5081651;28;19924;-67
2021/04/13 10:41:46;;;;;;;;;;;;;;;;;;5085809;28;19924;-67
2021/04/13 10:44:13;;;;;;;;;;;;;;;;;;5083460;28;20395;-67
2021/04/13 10:46:39;;;;;;;;;;;;;;;;;;5082570;28;19924;-67
2021/04/13 10:49:07;;;;;;;;;;;;;;;;;;5080012;28;20561;-67
2021/04/13 10:51:33;;;;;;;;;;;;;;;;;;5083361;28;19925;-66
2021/04/13 10:54:00;;;;;;;;;;;;;;;;;;5085240;28;20581;-66
2021/04/13 10:56:26;;;;;;;;;;;;;;;;;;5088602;28;19924;-66
2021/04/13 10:58:53;;;;;;;;;;;;;;;;;;5083162;28;19954;-66
2021/04/13 11:01:19;;;;;;;;;;;;;;;;;;5081863;28;20367;-65
2021/04/13 11:03:46;;;;;;;;;;;;;;;;;;5083459;28;20179;-65
2021/04/13 11:06:13;;;;;;;;;;;;;;;;;;5079403;28;20000;-65
2021/04/13 11:08:39;;;;;;;;;;;;;;;;;;5078894;28;19931;-66
2021/04/13 11:11:06;;;;;;;;;;;;;;;;;;5079798;28;19924;-65
2021/04/13 11:13:32;;;;;;;;;;;;;;;;;;5077384;28;20017;-65
2021/04/13 11:15:59;;;;;;;;;;;;;;;;;;5078854;28;20027;-66
2021/04/13 11:18:25;;;;;;;;;;;;;;;;;;5078658;28;20015;-65
2021/04/13 11:20:52;;;;;;;;;;;;;;;;;;5076211;28;19936;-65
2021/04/13 11:23:18;;;;;;;;;;;;;;;;;;5081114;28;20674;-67
2021/04/13 11:25:45;;;;;;;;;;;;;;;;;;5083347;28;20458;-67
2021/04/13 11:28:12;;;;;;;;;;;;;;;;;;5077587;28;20038;-67
2021/04/13 11:30:39;;;;;;;;;;;;;;;;;;5080989;28;20008;-66
2021/04/13 11:33:05;;;;;;;;;;;;;;;;;;5078995;28;20379;-66
2021/04/13 11:35:32;;;;;;;;;;;;;;;;;;5077230;28;20310;-66
2021/04/13 11:37:59;;;;;;;;;;;;;;;;;;5076382;28;21838;-66
2021/04/13 11:40:27;;;;;;;;;;;;;;;;;;5081315;28;20304;-68
2021/04/13 11:42:53;;;;;;;;;;;;;;;;;;5080062;28;20342;-66
2021/04/13 11:45:20;;;;;;;;;;;;;;;;;;5079117;28;19924;-66
2021/04/13 11:47:46;;;;;;;;;;;;;;;;;;5080022;28;20003;-66
2021/04/13 11:50:12;;;;;;;;;;;;;;;;;;5079778;28;20391;-66
2021/04/13 11:52:39;;;;;;;;;;;;;;;;;;5080457;28;19930;-66
2021/04/13 11:55:05;;;;;;;;;;;;;;;;;;5080257;28;20443;-66
2021/04/13 11:57:33;;;;;;;;;;;;;;;;;;5083626;28;19928;-66
2021/04/13 11:59:59;;;;;;;;;;;;;;;;;;5082129;28;19975;-66
2021/04/13 12:02:26;;;;;;;;;;;;;;;;;;5086686;28;19924;-66
2021/04/13 12:04:52;;;;;;;;;;;;;;;;;;5080388;28;19968;-66
2021/04/13 12:07:19;;;;;;;;;;;;;;;;;;5086541;28;19938;-66
2021/04/13 12:09:46;;;;;;;;;;;;;;;;;;5076413;28;21241;-66
2021/04/13 12:12:12;;;;;;;;;;;;;;;;;;5076567;28;19937;-66
2021/04/13 12:14:39;;;;;;;;;;;;;;;;;;5075885;28;20019;-66
2021/04/13 12:17:05;;;;;;;;;;;;;;;;;;5077557;28;19928;-66
2021/04/13 12:19:32;;;;;;;;;;;;;;;;;;5081135;28;19924;-66
2021/04/13 12:21:58;;;;;;;;;;;;;;;;;;5077875;28;20021;-66
2021/04/13 12:24:25;;;;;;;;;;;;;;;;;;5079502;28;19924;-66
2021/04/13 12:26:51;;;;;;;;;;;;;;;;;;5081528;28;21772;-66
2021/04/13 12:29:18;;;;;;;;;;;;;;;;;;5084852;28;19930;-66
2021/04/13 12:31:44;;;;;;;;;;;;;;;;;;5078786;28;19928;-66
2021/04/13 12:34:11;;;;;;;;;;;;;;;;;;5085090;28;20023;-66
2021/04/13 12:36:37;;;;;;;;;;;;;;;;;;5079772;28;20018;-66
2021/04/13 12:39:03;;;;;;;;;;;;;;;;;;5086856;28;19924;-66
2021/04/13 12:41:30;;;;;;;;;;;;;;;;;;5077980;28;19959;-66
2021/04/13 12:43:57;;;;;;;;;;;;;;;;;;5077040;28;20490;-65
2021/04/13 12:46:23;;;;;;;;;;;;;;;;;;5082659;28;19934;-65
2021/04/13 12:48:50;;;;;;;;;;;;;;;;;;5079729;28;19924;-65
2021/04/13 12:51:17;;;;;;;;;;;;;;;;;;5082559;28;19931;-66
2021/04/13 12:53:43;;;;;;;;;;;;;;;;;;5077248;28;20285;-66
2021/04/13 12:56:10;;;;;;;;;;;;;;;;;;5081074;28;20391;-66
2021/04/13 12:58:36;;;;;;;;;;;;;;;;;;5078304;28;19939;-66
2021/04/13 13:01:03;;;;;;;;;;;;;;;;;;5082371;28;19931;-66
2021/04/13 13:03:29;;;;;;;;;;;;;;;;;;5085612;28;20464;-65
2021/04/13 13:05:56;;;;;;;;;;;;;;;;;;5082032;28;20015;-66
2021/04/13 13:08:22;;;;;;;;;;;;;;;;;;5079723;28;20269;-67
2021/04/13 13:10:49;;;;;;;;;;;;;;;;;;5078080;28;19924;-66
2021/04/13 13:13:16;;;;;;;;;;;;;;;;;;5087667;28;19928;-66
2021/04/13 13:15:43;;;;;;;;;;;;;;;;;;5079615;28;19929;-66
2021/04/13 13:18:09;;;;;;;;;;;;;;;;;;5080328;28;19928;-66
2021/04/13 13:20:36;;;;;;;;;;;;;;;;;;5077178;28;19967;-66
2021/04/13 13:23:02;;;;;;;;;;;;;;;;;;5081087;28;20405;-66
2021/04/13 13:25:29;;;;;;;;;;;;;;;;;;5075666;28;19924;-66
2021/04/13 13:27:55;;;;;;;;;;;;;;;;;;5083987;28;19928;-66
2021/04/13 13:30:22;;;;;;;;;;;;;;;;;;5083220;28;19985;-66
2021/04/13 13:32:48;;;;;;;;;;;;;;;;;;5079700;28;19925;-66
2021/04/13 13:35:16;;;;;;;;;;;;;;;;;;5079072;28;20303;-66
2021/04/13 13:37:42;;;;;;;;;;;;;;;;;;5081247;28;20369;-67
2021/04/13 13:40:09;;;;;;;;;;;;;;;;;;5082963;28;19978;-64
2021/04/13 13:42:35;;;;;;;;;;;;;;;;;;5086121;28;19932;-66
2021/04/13 13:45:02;;;;;;;;;;;;;;;;;;5082779;28;19990;-66
2021/04/13 13:47:29;;;;;;;;;;;;;;;;;;5082091;28;20403;-67
2021/04/13 13:49:56;;;;;;;;;;;;;;;;;;5086077;28;19924;-67
2021/04/13 13:52:24;;;;;;;;;;;;;;;;;;5083703;28;19934;-67
2021/04/13 13:54:51;;;;;;;;;;;;;;;;;;5079517;28;19934;-66
2021/04/13 13:57:17;;;;;;;;;;;;;;;;;;5086075;28;19928;-66
2021/04/13 13:59:45;;;;;;;;;;;;;;;;;;5092669;28;19930;-67
2021/04/13 14:02:11;;;;;;;;;;;;;;;;;;5090334;28;19931;-67
2021/04/13 14:04:38;;;;;;;;;;;;;;;;;;5084644;28;19925;-66
2021/04/13 14:07:04;;;;;;;;;;;;;;;;;;5084369;28;19930;-66
2021/04/13 14:09:32;;;;;;;;;;;;;;;;;;5093837;28;20019;-67
2021/04/13 14:11:58;;;;;;;;;;;;;;;;;;5082303;28;20295;-67
2021/04/13 14:14:25;;;;;;;;;;;;;;;;;;5090806;28;20097;-67
2021/04/13 14:16:52;;;;;;;;;;;;;;;;;;5092702;28;20031;-65
2021/04/13 14:19:19;;;;;;;;;;;;;;;;;;5078336;28;21694;-67
2021/04/13 14:21:45;;;;;;;;;;;;;;;;;;5087533;28;20000;-67
2021/04/13 14:24:12;;;;;;;;;;;;;;;;;;5084265;28;20014;-66
2021/04/13 14:26:41;;;;;;;;;;;;;;;;;;5081627;28;19997;-67
2021/04/13 14:29:08;;;;;;;;;;;;;;;;;;5085262;28;20355;-67
2021/04/13 14:31:34;;;;;;;;;;;;;;;;;;5091848;28;19938;-67
2021/04/13 14:34:01;;;;;;;;;;;;;;;;;;5083990;28;19929;-67
2021/04/13 14:36:28;;;;;;;;;;;;;;;;;;5085527;28;19935;-67
2021/04/13 14:38:54;;;;;;;;;;;;;;;;;;5085549;28;20315;-67
2021/04/13 14:41:21;;;;;;;;;;;;;;;;;;5084858;28;20414;-67
2021/04/13 14:43:47;;;;;;;;;;;;;;;;;;5084672;28;20015;-65
2021/04/13 14:46:14;;;;;;;;;;;;;;;;;;5083729;28;20028;-66
2021/04/13 14:48:40;;;;;;;;;;;;;;;;;;5087683;28;19989;-66
2021/04/13 14:51:07;;;;;;;;;;;;;;;;;;5082680;28;20023;-65
2021/04/13 14:53:33;;;;;;;;;;;;;;;;;;5086981;28;19924;-66
2021/04/13 14:56:00;;;;;;;;;;;;;;;;;;5090547;28;19931;-66
2021/04/13 14:58:26;;;;;;;;;;;;;;;;;;5088474;28;19924;-67
2021/04/13 15:00:53;;;;;;;;;;;;;;;;;;5082928;28;20365;-66
2021/04/13 15:03:20;;;;;;;;;;;;;;;;;;5090289;28;19976;-67
2021/04/13 15:05:47;;;;;;;;;;;;;;;;;;5082919;28;19932;-67
2021/04/13 15:08:13;;;;;;;;;;;;;;;;;;5084412;28;19971;-67
2021/04/13 15:10:40;;;;;;;;;;;;;;;;;;5083258;28;19933;-67
2021/04/13 15:13:07;;;;;;;;;;;;;;;;;;5086208;28;19932;-67
2021/04/13 15:15:33;;;;;;;;;;;;;;;;;;5081948;28;19969;-67
2021/04/13 15:18:00;;;;;;;;;;;;;;;;;;5082854;28;20011;-66
2021/04/13 15:20:26;;;;;;;;;;;;;;;;;;5083405;28;19929;-66
2021/04/13 15:22:53;;;;;;;;;;;;;;;;;;5082383;28;19931;-66
2021/04/13 15:25:19;;;;;;;;;;;;;;;;;;5087284;28;19928;-66
2021/04/13 15:27:46;;;;;;;;;;;;;;;;;;5082055;28;19924;-66
2021/04/13 15:30:13;;;;;;;;;;;;;;;;;;5087720;28;20009;-66
2021/04/13 15:32:39;;;;;;;;;;;;;;;;;;5085504;28;20014;-66
2021/04/13 15:35:06;;;;;;;;;;;;;;;;;;5086892;28;20343;-66
2021/04/13 15:37:32;;;;;;;;;;;;;;;;;;5084034;28;19928;-66
2021/04/13 15:39:59;;;;;;;;;;;;;;;;;;5092207;28;19924;-66
2021/04/13 15:42:26;;;;;;;;;;;;;;;;;;5075593;28;19950;-66
2021/04/13 15:44:53;;;;;;;;;;;;;;;;;;5081478;28;20461;-66
2021/04/13 15:47:19;;;;;;;;;;;;;;;;;;5082260;28;19930;-66
2021/04/13 15:49:46;;;;;;;;;;;;;;;;;;5089595;28;20349;-66
2021/04/13 15:52:12;;;;;;;;;;;;;;;;;;5089272;28;20014;-66
2021/04/13 15:54:39;;;;;;;;;;;;;;;;;;5096102;28;20011;-66
2021/04/13 15:57:05;;;;;;;;;;;;;;;;;;5087396;28;19986;-67
2021/04/13 15:59:32;;;;;;;;;;;;;;;;;;5087629;28;19932;-64
2021/04/13 16:01:58;;;;;;;;;;;;;;;;;;5083024;28;20114;-65
2021/04/13 16:04:25;;;;;;;;;;;;;;;;;;5080143;28;19928;-66
2021/04/13 16:06:51;;;;;;;;;;;;;;;;;;5090620;28;19924;-65
2021/04/13 16:09:18;;;;;;;;;;;;;;;;;;5082792;28;20585;-65
2021/04/13 16:11:44;;;;;;;;;;;;;;;;;;5085594;28;19930;-66
2021/04/13 16:14:11;;;;;;;;;;;;;;;;;;5100124;22;20018;-65
2021/04/13 16:16:38;;;;;;;;;;;;;;;;;;5074161;28;20376;-65
2021/04/13 16:19:04;;;;;;;;;;;;;;;;;;5072247;28;19924;-66
2021/04/13 16:21:31;;;;;;;;;;;;;;;;;;5074053;28;19985;-65
2021/04/13 16:24:00;;;;;;;;;;;;;;;;;;5075319;28;19924;-65
2021/04/13 16:26:27;;;;;;;;;;;;;;;;;;5073368;28;19932;-65
2021/04/13 16:28:54;;;;;;;;;;;;;;;;;;5075418;28;19929;-65
2021/04/13 16:31:25;;;;;;;;;;;;;;;;;;5072550;28;19936;-64
2021/04/13 16:33:51;;;;;;;;;;;;;;;;;;5071085;28;19932;-64
2021/04/13 16:36:18;;;;;;;;;;;;;;;;;;5073725;28;20281;-65
2021/04/13 16:38:45;;;;;;;;;;;;;;;;;;5073156;28;19967;-65
2021/04/13 16:41:11;;;;;;;;;;;;;;;;;;5073236;28;19932;-66
2021/04/13 16:43:39;;;;;;;;;;;;;;;;;;5073615;28;19963;-65